sensor_id;sensor_type;location;lat;lon;timestamp;temperature;humidity
21092;DHT22;10704;42.678;23.288;2024-03-02T00:04:20;8.00;99.90
21092;DHT22;10704;42.678;23.288;2024-03-02T00:06:47;8.00;99.90
21092;DHT22;10704;42.678;23.288;2024-03-02T00:09:14;8.10;99.90
21092;DHT22;10704;42.678;23.288;2024-03-02T00:11:40;8.00;99.90
21092;DHT22;10704;42.678;23.288;2024-03-02T00:20:38;8.00;99.90
21092;DHT22;10704;42.678;23.288;2024-03-02T00:33:21;8.10;99.90
21092;DHT22;10704;42.678;23.288;2024-03-02T00:35:49;8.00;99.90
21092;DHT22;10704;42.678;23.288;2024-03-02T00:46:17;8.00;99.90
21092;DHT22;10704;42.678;23.288;2024-03-02T00:48:56;8.00;99.90
21092;DHT22;10704;42.678;23.288;2024-03-02T00:51:24;8.10;99.90
21092;DHT22;10704;42.678;23.288;2024-03-02T00:53:55;8.00;99.90
21092;DHT22;10704;42.678;23.288;2024-03-02T00:56:23;8.00;99.90
21092;DHT22;10704;42.678;23.288;2024-03-02T00:58:49;8.00;99.90
21092;DHT22;10704;42.678;23.288;2024-03-02T01:01:16;8.00;99.90
21092;DHT22;10704;42.678;23.288;2024-03-02T01:03:42;8.00;99.90
21092;DHT22;10704;42.678;23.288;2024-03-02T01:06:08;8.00;99.90
21092;DHT22;10704;42.678;23.288;2024-03-02T01:08:35;8.20;99.90
21092;DHT22;10704;42.678;23.288;2024-03-02T01:11:01;8.10;99.90
21092;DHT22;10704;42.678;23.288;2024-03-02T01:13:27;8.20;99.90
21092;DHT22;10704;42.678;23.288;2024-03-02T01:15:54;8.30;99.90
21092;DHT22;10704;42.678;23.288;2024-03-02T01:18:20;8.20;99.90
21092;DHT22;10704;42.678;23.288;2024-03-02T01:20:45;8.10;99.90
21092;DHT22;10704;42.678;23.288;2024-03-02T01:23:12;8.20;99.90
21092;DHT22;10704;42.678;23.288;2024-03-02T01:25:38;8.30;99.90
21092;DHT22;10704;42.678;23.288;2024-03-02T01:28:04;8.20;99.90
21092;DHT22;10704;42.678;23.288;2024-03-02T01:30:30;8.20;99.90
21092;DHT22;10704;42.678;23.288;2024-03-02T01:32:57;8.20;99.90
21092;DHT22;10704;42.678;23.288;2024-03-02T01:35:25;8.30;99.90
21092;DHT22;10704;42.678;23.288;2024-03-02T01:37:52;8.30;99.90
21092;DHT22;10704;42.678;23.288;2024-03-02T01:40:18;8.20;99.90
21092;DHT22;10704;42.678;23.288;2024-03-02T01:42:44;8.10;99.90
21092;DHT22;10704;42.678;23.288;2024-03-02T01:52:46;8.10;99.90
21092;DHT22;10704;42.678;23.288;2024-03-02T01:55:11;8.00;99.90
21092;DHT22;10704;42.678;23.288;2024-03-02T01:57:38;8.10;99.90
21092;DHT22;10704;42.678;23.288;2024-03-02T02:00:07;8.20;99.90
21092;DHT22;10704;42.678;23.288;2024-03-02T02:02:37;8.20;99.90
21092;DHT22;10704;42.678;23.288;2024-03-02T02:05:03;8.20;99.90
21092;DHT22;10704;42.678;23.288;2024-03-02T02:07:47;8.30;99.90
21092;DHT22;10704;42.678;23.288;2024-03-02T02:10:13;8.30;99.90
21092;DHT22;10704;42.678;23.288;2024-03-02T02:12:39;8.30;99.90
21092;DHT22;10704;42.678;23.288;2024-03-02T02:15:25;8.20;99.90
21092;DHT22;10704;42.678;23.288;2024-03-02T02:17:51;8.30;99.90
21092;DHT22;10704;42.678;23.288;2024-03-02T02:20:17;8.40;99.90
21092;DHT22;10704;42.678;23.288;2024-03-02T02:23:05;8.30;99.90
21092;DHT22;10704;42.678;23.288;2024-03-02T02:25:33;8.30;99.90
21092;DHT22;10704;42.678;23.288;2024-03-02T02:27:59;8.20;99.90
21092;DHT22;10704;42.678;23.288;2024-03-02T02:30:27;8.10;99.90
21092;DHT22;10704;42.678;23.288;2024-03-02T02:32:54;8.20;99.90
21092;DHT22;10704;42.678;23.288;2024-03-02T02:35:20;8.10;99.90
21092;DHT22;10704;42.678;23.288;2024-03-02T02:37:47;8.20;99.90
21092;DHT22;10704;42.678;23.288;2024-03-02T02:40:14;8.20;99.90
21092;DHT22;10704;42.678;23.288;2024-03-02T02:42:40;8.10;99.90
21092;DHT22;10704;42.678;23.288;2024-03-02T02:55:57;7.80;99.90
21092;DHT22;10704;42.678;23.288;2024-03-02T02:58:23;7.80;99.90
21092;DHT22;10704;42.678;23.288;2024-03-02T03:04:36;7.70;99.90
21092;DHT22;10704;42.678;23.288;2024-03-02T03:07:05;7.80;99.90
21092;DHT22;10704;42.678;23.288;2024-03-02T03:09:32;7.70;99.90
21092;DHT22;10704;42.678;23.288;2024-03-02T03:11:58;7.60;99.90
21092;DHT22;10704;42.678;23.288;2024-03-02T03:14:23;7.70;99.90
21092;DHT22;10704;42.678;23.288;2024-03-02T03:16:49;7.60;99.90
21092;DHT22;10704;42.678;23.288;2024-03-02T03:19:16;7.60;99.90
21092;DHT22;10704;42.678;23.288;2024-03-02T03:21:43;7.50;99.90
21092;DHT22;10704;42.678;23.288;2024-03-02T03:24:09;7.50;99.90
21092;DHT22;10704;42.678;23.288;2024-03-02T03:26:38;7.60;99.90
21092;DHT22;10704;42.678;23.288;2024-03-02T03:29:04;7.60;99.90
21092;DHT22;10704;42.678;23.288;2024-03-02T03:35:18;7.70;99.90
21092;DHT22;10704;42.678;23.288;2024-03-02T03:38:07;7.60;99.90
21092;DHT22;10704;42.678;23.288;2024-03-02T03:40:33;7.60;99.90
21092;DHT22;10704;42.678;23.288;2024-03-02T03:42:58;7.50;99.90
21092;DHT22;10704;42.678;23.288;2024-03-02T03:45:25;7.60;99.90
21092;DHT22;10704;42.678;23.288;2024-03-02T03:47:53;7.60;99.90
21092;DHT22;10704;42.678;23.288;2024-03-02T03:50:19;7.50;99.90
21092;DHT22;10704;42.678;23.288;2024-03-02T03:52:45;7.60;99.90
21092;DHT22;10704;42.678;23.288;2024-03-02T03:58:44;7.60;99.90
21092;DHT22;10704;42.678;23.288;2024-03-02T04:01:10;7.60;99.90
21092;DHT22;10704;42.678;23.288;2024-03-02T04:03:36;7.60;99.90
21092;DHT22;10704;42.678;23.288;2024-03-02T04:06:02;7.60;99.90
21092;DHT22;10704;42.678;23.288;2024-03-02T04:08:28;7.70;99.90
21092;DHT22;10704;42.678;23.288;2024-03-02T04:10:54;7.70;99.90
21092;DHT22;10704;42.678;23.288;2024-03-02T04:13:20;7.70;99.90
21092;DHT22;10704;42.678;23.288;2024-03-02T04:15:46;7.70;99.90
21092;DHT22;10704;42.678;23.288;2024-03-02T04:22:00;7.50;99.90
21092;DHT22;10704;42.678;23.288;2024-03-02T04:24:26;7.60;99.90
21092;DHT22;10704;42.678;23.288;2024-03-02T04:26:51;7.60;99.90
21092;DHT22;10704;42.678;23.288;2024-03-02T04:29:21;7.70;99.90
21092;DHT22;10704;42.678;23.288;2024-03-02T04:31:47;7.70;99.90
21092;DHT22;10704;42.678;23.288;2024-03-02T04:34:13;7.60;99.90
21092;DHT22;10704;42.678;23.288;2024-03-02T04:41:06;7.50;99.90
21092;DHT22;10704;42.678;23.288;2024-03-02T04:43:53;7.50;99.90
21092;DHT22;10704;42.678;23.288;2024-03-02T04:49:24;7.40;99.90
21092;DHT22;10704;42.678;23.288;2024-03-02T04:51:50;7.40;99.90
21092;DHT22;10704;42.678;23.288;2024-03-02T04:54:16;7.40;99.90
21092;DHT22;10704;42.678;23.288;2024-03-02T05:04:46;7.20;99.90
21092;DHT22;10704;42.678;23.288;2024-03-02T05:11:02;7.20;99.90
21092;DHT22;10704;42.678;23.288;2024-03-02T05:13:48;7.30;99.90
21092;DHT22;10704;42.678;23.288;2024-03-02T05:16:14;7.20;99.90
21092;DHT22;10704;42.678;23.288;2024-03-02T05:18:40;7.30;99.90
21092;DHT22;10704;42.678;23.288;2024-03-02T05:21:06;7.30;99.90
21092;DHT22;10704;42.678;23.288;2024-03-02T05:26:41;7.30;99.90
21092;DHT22;10704;42.678;23.288;2024-03-02T05:32:14;7.20;99.90
21092;DHT22;10704;42.678;23.288;2024-03-02T05:34:40;7.10;99.90
21092;DHT22;10704;42.678;23.288;2024-03-02T05:37:07;7.30;99.90
21092;DHT22;10704;42.678;23.288;2024-03-02T05:43:21;7.20;99.90
21092;DHT22;10704;42.678;23.288;2024-03-02T05:45:47;7.20;99.90
21092;DHT22;10704;42.678;23.288;2024-03-02T05:48:12;7.20;99.90
21092;DHT22;10704;42.678;23.288;2024-03-02T05:50:38;7.30;99.90
21092;DHT22;10704;42.678;23.288;2024-03-02T05:53:04;7.30;99.90
21092;DHT22;10704;42.678;23.288;2024-03-02T05:55:31;7.30;99.90
21092;DHT22;10704;42.678;23.288;2024-03-02T05:57:57;7.30;99.90
21092;DHT22;10704;42.678;23.288;2024-03-02T06:00:33;7.30;99.90
21092;DHT22;10704;42.678;23.288;2024-03-02T06:02:59;7.40;99.90
21092;DHT22;10704;42.678;23.288;2024-03-02T06:05:25;7.40;99.90
21092;DHT22;10704;42.678;23.288;2024-03-02T06:07:51;7.40;99.90
21092;DHT22;10704;42.678;23.288;2024-03-02T06:10:17;7.50;99.90
21092;DHT22;10704;42.678;23.288;2024-03-02T06:12:43;7.50;99.90
21092;DHT22;10704;42.678;23.288;2024-03-02T06:15:09;7.50;99.90
21092;DHT22;10704;42.678;23.288;2024-03-02T06:17:36;7.40;99.90
21092;DHT22;10704;42.678;23.288;2024-03-02T06:20:03;7.50;99.90
21092;DHT22;10704;42.678;23.288;2024-03-02T06:25:34;7.60;99.90
21092;DHT22;10704;42.678;23.288;2024-03-02T06:27:59;7.60;99.90
21092;DHT22;10704;42.678;23.288;2024-03-02T06:30:25;7.70;99.90
21092;DHT22;10704;42.678;23.288;2024-03-02T06:33:07;7.80;99.90
21092;DHT22;10704;42.678;23.288;2024-03-02T06:35:33;7.90;99.90
21092;DHT22;10704;42.678;23.288;2024-03-02T06:38:01;7.90;99.90
21092;DHT22;10704;42.678;23.288;2024-03-02T06:40:30;7.90;99.90
21092;DHT22;10704;42.678;23.288;2024-03-02T06:42:56;7.90;99.90
21092;DHT22;10704;42.678;23.288;2024-03-02T06:45:22;8.00;99.90
21092;DHT22;10704;42.678;23.288;2024-03-02T06:47:55;8.10;99.90
21092;DHT22;10704;42.678;23.288;2024-03-02T06:50:21;8.10;99.90
21092;DHT22;10704;42.678;23.288;2024-03-02T06:56:35;8.10;99.90
21092;DHT22;10704;42.678;23.288;2024-03-02T06:59:01;8.00;99.90
21092;DHT22;10704;42.678;23.288;2024-03-02T07:01:27;8.00;99.90
21092;DHT22;10704;42.678;23.288;2024-03-02T07:03:53;8.10;99.90
21092;DHT22;10704;42.678;23.288;2024-03-02T07:06:19;8.10;99.90
21092;DHT22;10704;42.678;23.288;2024-03-02T07:08:45;8.10;99.90
21092;DHT22;10704;42.678;23.288;2024-03-02T07:11:11;8.20;99.90
21092;DHT22;10704;42.678;23.288;2024-03-02T07:13:38;8.20;99.90
21092;DHT22;10704;42.678;23.288;2024-03-02T07:16:04;8.20;99.90
21092;DHT22;10704;42.678;23.288;2024-03-02T07:18:56;8.30;99.90
21092;DHT22;10704;42.678;23.288;2024-03-02T07:21:22;8.40;99.90
21092;DHT22;10704;42.678;23.288;2024-03-02T07:23:49;8.40;99.90
21092;DHT22;10704;42.678;23.288;2024-03-02T07:26:15;8.40;99.90
21092;DHT22;10704;42.678;23.288;2024-03-02T07:28:42;8.40;99.90
21092;DHT22;10704;42.678;23.288;2024-03-02T07:31:19;8.50;99.90
21092;DHT22;10704;42.678;23.288;2024-03-02T07:33:45;8.40;99.90
21092;DHT22;10704;42.678;23.288;2024-03-02T07:36:12;8.50;99.90
21092;DHT22;10704;42.678;23.288;2024-03-02T07:38:38;8.50;99.90
21092;DHT22;10704;42.678;23.288;2024-03-02T07:41:06;8.50;99.90
21092;DHT22;10704;42.678;23.288;2024-03-02T07:43:32;8.60;99.90
21092;DHT22;10704;42.678;23.288;2024-03-02T07:46:01;8.50;99.90
21092;DHT22;10704;42.678;23.288;2024-03-02T07:52:16;8.40;99.90
21092;DHT22;10704;42.678;23.288;2024-03-02T07:54:42;8.50;99.90
21092;DHT22;10704;42.678;23.288;2024-03-02T07:57:07;8.30;99.90
21092;DHT22;10704;42.678;23.288;2024-03-02T07:59:34;8.30;99.90
21092;DHT22;10704;42.678;23.288;2024-03-02T08:02:00;8.30;99.90
21092;DHT22;10704;42.678;23.288;2024-03-02T08:04:26;8.30;99.90
21092;DHT22;10704;42.678;23.288;2024-03-02T08:06:52;8.30;99.90
21092;DHT22;10704;42.678;23.288;2024-03-02T08:09:18;8.40;99.90
21092;DHT22;10704;42.678;23.288;2024-03-02T08:11:44;8.40;99.90
21092;DHT22;10704;42.678;23.288;2024-03-02T08:14:10;8.40;99.90
21092;DHT22;10704;42.678;23.288;2024-03-02T08:16:36;8.30;99.90
21092;DHT22;10704;42.678;23.288;2024-03-02T08:19:02;8.40;99.90
21092;DHT22;10704;42.678;23.288;2024-03-02T08:21:29;8.30;99.90
21092;DHT22;10704;42.678;23.288;2024-03-02T08:23:57;8.50;99.90
21092;DHT22;10704;42.678;23.288;2024-03-02T08:26:23;8.50;99.90
21092;DHT22;10704;42.678;23.288;2024-03-02T08:28:49;8.50;99.90
21092;DHT22;10704;42.678;23.288;2024-03-02T08:31:15;8.70;99.90
21092;DHT22;10704;42.678;23.288;2024-03-02T08:33:42;8.70;99.90
21092;DHT22;10704;42.678;23.288;2024-03-02T08:36:08;8.80;99.90
21092;DHT22;10704;42.678;23.288;2024-03-02T08:38:35;9.00;99.90
21092;DHT22;10704;42.678;23.288;2024-03-02T08:41:01;9.00;99.90
21092;DHT22;10704;42.678;23.288;2024-03-02T08:43:27;9.20;99.90
21092;DHT22;10704;42.678;23.288;2024-03-02T08:45:53;8.90;99.90
21092;DHT22;10704;42.678;23.288;2024-03-02T08:48:19;9.00;99.90
21092;DHT22;10704;42.678;23.288;2024-03-02T08:50:46;9.20;99.90
21092;DHT22;10704;42.678;23.288;2024-03-02T08:53:12;9.00;99.90
21092;DHT22;10704;42.678;23.288;2024-03-02T08:55:39;9.10;99.90
21092;DHT22;10704;42.678;23.288;2024-03-02T08:58:06;9.40;99.90
21092;DHT22;10704;42.678;23.288;2024-03-02T09:00:32;9.60;99.90
21092;DHT22;10704;42.678;23.288;2024-03-02T09:02:58;9.50;99.90
21092;DHT22;10704;42.678;23.288;2024-03-02T09:05:24;9.60;99.90
21092;DHT22;10704;42.678;23.288;2024-03-02T09:07:50;9.90;99.90
21092;DHT22;10704;42.678;23.288;2024-03-02T09:10:16;10.20;99.90
21092;DHT22;10704;42.678;23.288;2024-03-02T09:12:43;10.50;99.90
21092;DHT22;10704;42.678;23.288;2024-03-02T09:15:09;10.50;99.90
21092;DHT22;10704;42.678;23.288;2024-03-02T09:17:36;10.70;99.90
21092;DHT22;10704;42.678;23.288;2024-03-02T09:20:02;10.30;99.90
21092;DHT22;10704;42.678;23.288;2024-03-02T09:22:29;10.10;99.90
21092;DHT22;10704;42.678;23.288;2024-03-02T09:28:43;10.10;99.90
21092;DHT22;10704;42.678;23.288;2024-03-02T09:31:09;9.80;99.90
21092;DHT22;10704;42.678;23.288;2024-03-02T09:33:35;9.70;99.90
21092;DHT22;10704;42.678;23.288;2024-03-02T09:36:01;9.80;99.90
21092;DHT22;10704;42.678;23.288;2024-03-02T09:38:27;9.90;99.90
21092;DHT22;10704;42.678;23.288;2024-03-02T09:40:53;9.70;99.90
21092;DHT22;10704;42.678;23.288;2024-03-02T09:43:19;9.50;99.90
21092;DHT22;10704;42.678;23.288;2024-03-02T09:49:33;9.70;99.90
21092;DHT22;10704;42.678;23.288;2024-03-02T09:51:59;9.70;99.90
21092;DHT22;10704;42.678;23.288;2024-03-02T09:54:25;9.80;99.90
21092;DHT22;10704;42.678;23.288;2024-03-02T09:56:51;9.80;99.90
21092;DHT22;10704;42.678;23.288;2024-03-02T09:59:17;9.90;99.90
21092;DHT22;10704;42.678;23.288;2024-03-02T10:02:01;9.90;99.90
21092;DHT22;10704;42.678;23.288;2024-03-02T10:04:31;9.90;99.90
21092;DHT22;10704;42.678;23.288;2024-03-02T10:07:11;9.90;99.90
21092;DHT22;10704;42.678;23.288;2024-03-02T10:09:38;9.90;99.90
21092;DHT22;10704;42.678;23.288;2024-03-02T10:12:05;9.90;99.90
21092;DHT22;10704;42.678;23.288;2024-03-02T10:14:31;9.80;99.90
21092;DHT22;10704;42.678;23.288;2024-03-02T10:17:05;9.90;99.90
21092;DHT22;10704;42.678;23.288;2024-03-02T10:19:32;9.90;99.90
21092;DHT22;10704;42.678;23.288;2024-03-02T10:22:01;9.90;99.90
21092;DHT22;10704;42.678;23.288;2024-03-02T10:24:36;10.00;99.90
21092;DHT22;10704;42.678;23.288;2024-03-02T10:27:11;9.80;99.90
21092;DHT22;10704;42.678;23.288;2024-03-02T10:29:40;9.80;99.90
21092;DHT22;10704;42.678;23.288;2024-03-02T10:32:10;9.80;99.90
21092;DHT22;10704;42.678;23.288;2024-03-02T10:34:44;9.70;99.90
21092;DHT22;10704;42.678;23.288;2024-03-02T10:37:13;9.60;99.90
21092;DHT22;10704;42.678;23.288;2024-03-02T10:39:39;9.60;99.90
21092;DHT22;10704;42.678;23.288;2024-03-02T10:42:09;9.70;99.90
21092;DHT22;10704;42.678;23.288;2024-03-02T10:44:35;9.80;99.90
21092;DHT22;10704;42.678;23.288;2024-03-02T10:47:03;9.90;99.90
21092;DHT22;10704;42.678;23.288;2024-03-02T10:49:33;9.90;99.90
21092;DHT22;10704;42.678;23.288;2024-03-02T10:52:00;9.90;99.90
21092;DHT22;10704;42.678;23.288;2024-03-02T10:54:26;9.90;99.90
21092;DHT22;10704;42.678;23.288;2024-03-02T10:56:57;9.90;99.90
21092;DHT22;10704;42.678;23.288;2024-03-02T10:59:37;9.70;99.90
21092;DHT22;10704;42.678;23.288;2024-03-02T11:02:07;9.80;99.90
21092;DHT22;10704;42.678;23.288;2024-03-02T11:04:39;9.70;99.90
21092;DHT22;10704;42.678;23.288;2024-03-02T11:07:07;9.80;99.90
21092;DHT22;10704;42.678;23.288;2024-03-02T11:09:40;9.80;99.90
21092;DHT22;10704;42.678;23.288;2024-03-02T11:12:15;9.80;99.90
21092;DHT22;10704;42.678;23.288;2024-03-02T11:14:43;9.80;99.90
21092;DHT22;10704;42.678;23.288;2024-03-02T11:17:10;9.80;99.90
21092;DHT22;10704;42.678;23.288;2024-03-02T11:19:40;9.80;99.90
21092;DHT22;10704;42.678;23.288;2024-03-02T11:22:08;9.80;99.90
21092;DHT22;10704;42.678;23.288;2024-03-02T11:24:34;9.80;99.90
21092;DHT22;10704;42.678;23.288;2024-03-02T11:27:07;9.80;99.90
21092;DHT22;10704;42.678;23.288;2024-03-02T11:32:06;9.90;99.90
21092;DHT22;10704;42.678;23.288;2024-03-02T11:34:36;9.90;99.90
21092;DHT22;10704;42.678;23.288;2024-03-02T11:37:02;10.00;99.90
21092;DHT22;10704;42.678;23.288;2024-03-02T11:39:29;9.90;99.90
21092;DHT22;10704;42.678;23.288;2024-03-02T11:41:56;9.80;99.90
21092;DHT22;10704;42.678;23.288;2024-03-02T11:44:25;9.80;99.90
21092;DHT22;10704;42.678;23.288;2024-03-02T11:47:01;9.80;99.90
21092;DHT22;10704;42.678;23.288;2024-03-02T11:49:44;10.00;99.90
21092;DHT22;10704;42.678;23.288;2024-03-02T11:52:12;10.00;99.90
21092;DHT22;10704;42.678;23.288;2024-03-02T11:54:40;9.90;99.90
21092;DHT22;10704;42.678;23.288;2024-03-02T11:57:15;9.80;99.90
21092;DHT22;10704;42.678;23.288;2024-03-02T11:59:41;9.80;99.90
21092;DHT22;10704;42.678;23.288;2024-03-02T12:02:18;9.80;99.90
21092;DHT22;10704;42.678;23.288;2024-03-02T12:04:45;9.90;99.90
21092;DHT22;10704;42.678;23.288;2024-03-02T12:07:12;9.90;99.90
21092;DHT22;10704;42.678;23.288;2024-03-02T12:09:43;9.80;99.90
21092;DHT22;10704;42.678;23.288;2024-03-02T12:12:10;9.80;99.90
21092;DHT22;10704;42.678;23.288;2024-03-02T12:14:37;9.90;99.90
21092;DHT22;10704;42.678;23.288;2024-03-02T12:17:05;10.00;99.90
21092;DHT22;10704;42.678;23.288;2024-03-02T12:19:32;10.10;99.90
21092;DHT22;10704;42.678;23.288;2024-03-02T12:21:59;10.10;99.90
21092;DHT22;10704;42.678;23.288;2024-03-02T12:24:29;10.20;99.90
21092;DHT22;10704;42.678;23.288;2024-03-02T12:26:56;10.20;99.90
21092;DHT22;10704;42.678;23.288;2024-03-02T12:29:22;10.10;99.90
21092;DHT22;10704;42.678;23.288;2024-03-02T12:31:51;10.20;99.90
21092;DHT22;10704;42.678;23.288;2024-03-02T12:34:21;10.10;99.90
21092;DHT22;10704;42.678;23.288;2024-03-02T12:36:47;10.10;99.90
21092;DHT22;10704;42.678;23.288;2024-03-02T12:39:21;10.20;99.90
21092;DHT22;10704;42.678;23.288;2024-03-02T12:41:50;10.10;99.90
21092;DHT22;10704;42.678;23.288;2024-03-02T12:44:17;9.90;99.90
21092;DHT22;10704;42.678;23.288;2024-03-02T12:46:44;9.70;99.90
21092;DHT22;10704;42.678;23.288;2024-03-02T12:49:14;9.80;99.90
21092;DHT22;10704;42.678;23.288;2024-03-02T12:51:44;9.70;99.90
21092;DHT22;10704;42.678;23.288;2024-03-02T12:54:12;9.80;99.90
21092;DHT22;10704;42.678;23.288;2024-03-02T12:56:41;9.90;99.90
21092;DHT22;10704;42.678;23.288;2024-03-02T12:59:19;10.10;99.90
21092;DHT22;10704;42.678;23.288;2024-03-02T13:01:53;10.00;99.90
21092;DHT22;10704;42.678;23.288;2024-03-02T13:04:25;10.10;99.90
21092;DHT22;10704;42.678;23.288;2024-03-02T13:06:52;10.10;99.90
21092;DHT22;10704;42.678;23.288;2024-03-02T13:09:18;9.90;99.90
21092;DHT22;10704;42.678;23.288;2024-03-02T13:11:44;9.90;99.90
21092;DHT22;10704;42.678;23.288;2024-03-02T13:14:10;10.00;99.90
21092;DHT22;10704;42.678;23.288;2024-03-02T13:16:40;10.00;99.90
21092;DHT22;10704;42.678;23.288;2024-03-02T13:19:11;9.90;99.90
21092;DHT22;10704;42.678;23.288;2024-03-02T13:21:37;9.90;99.90
21092;DHT22;10704;42.678;23.288;2024-03-02T13:24:04;9.90;99.90
21092;DHT22;10704;42.678;23.288;2024-03-02T13:26:31;9.90;99.90
21092;DHT22;10704;42.678;23.288;2024-03-02T13:28:57;9.90;99.90
21092;DHT22;10704;42.678;23.288;2024-03-02T13:31:23;10.00;99.90
21092;DHT22;10704;42.678;23.288;2024-03-02T13:33:48;10.00;99.90
21092;DHT22;10704;42.678;23.288;2024-03-02T13:36:15;10.10;99.90
21092;DHT22;10704;42.678;23.288;2024-03-02T13:38:41;10.10;99.90
21092;DHT22;10704;42.678;23.288;2024-03-02T13:41:07;10.10;99.90
21092;DHT22;10704;42.678;23.288;2024-03-02T13:43:33;10.20;99.90
21092;DHT22;10704;42.678;23.288;2024-03-02T13:46:19;10.20;99.90
21092;DHT22;10704;42.678;23.288;2024-03-02T13:48:46;10.10;99.90
21092;DHT22;10704;42.678;23.288;2024-03-02T13:51:12;10.20;99.90
21092;DHT22;10704;42.678;23.288;2024-03-02T13:53:38;10.20;99.90
21092;DHT22;10704;42.678;23.288;2024-03-02T13:56:04;10.10;99.90
21092;DHT22;10704;42.678;23.288;2024-03-02T13:58:31;10.10;99.90
21092;DHT22;10704;42.678;23.288;2024-03-02T14:00:57;10.20;99.90
21092;DHT22;10704;42.678;23.288;2024-03-02T14:03:23;10.10;99.90
21092;DHT22;10704;42.678;23.288;2024-03-02T14:05:49;10.10;99.90
21092;DHT22;10704;42.678;23.288;2024-03-02T14:08:15;10.10;99.90
21092;DHT22;10704;42.678;23.288;2024-03-02T14:10:44;10.20;99.90
21092;DHT22;10704;42.678;23.288;2024-03-02T14:13:11;10.20;99.90
21092;DHT22;10704;42.678;23.288;2024-03-02T14:15:37;10.20;99.90
21092;DHT22;10704;42.678;23.288;2024-03-02T14:18:05;10.20;99.90
21092;DHT22;10704;42.678;23.288;2024-03-02T14:20:31;10.10;99.90
21092;DHT22;10704;42.678;23.288;2024-03-02T14:22:58;10.10;99.90
21092;DHT22;10704;42.678;23.288;2024-03-02T14:25:29;10.00;99.90
21092;DHT22;10704;42.678;23.288;2024-03-02T14:27:59;10.00;99.90
21092;DHT22;10704;42.678;23.288;2024-03-02T14:30:25;10.10;99.90
21092;DHT22;10704;42.678;23.288;2024-03-02T14:32:51;10.20;99.90
21092;DHT22;10704;42.678;23.288;2024-03-02T14:35:17;10.20;99.90
21092;DHT22;10704;42.678;23.288;2024-03-02T14:37:44;10.30;99.90
21092;DHT22;10704;42.678;23.288;2024-03-02T14:40:10;10.60;99.90
21092;DHT22;10704;42.678;23.288;2024-03-02T14:42:38;10.70;99.90
21092;DHT22;10704;42.678;23.288;2024-03-02T14:45:04;10.60;99.90
21092;DHT22;10704;42.678;23.288;2024-03-02T14:47:34;10.70;99.90
21092;DHT22;10704;42.678;23.288;2024-03-02T14:50:01;10.70;99.90
21092;DHT22;10704;42.678;23.288;2024-03-02T14:52:32;10.80;99.90
21092;DHT22;10704;42.678;23.288;2024-03-02T14:54:58;11.00;99.90
21092;DHT22;10704;42.678;23.288;2024-03-02T14:57:24;11.00;99.90
21092;DHT22;10704;42.678;23.288;2024-03-02T14:59:50;10.90;99.90
21092;DHT22;10704;42.678;23.288;2024-03-02T15:02:16;10.80;99.90
21092;DHT22;10704;42.678;23.288;2024-03-02T15:04:43;10.80;99.90
21092;DHT22;10704;42.678;23.288;2024-03-02T15:07:11;10.80;99.90
21092;DHT22;10704;42.678;23.288;2024-03-02T15:09:37;10.80;99.90
21092;DHT22;10704;42.678;23.288;2024-03-02T15:12:03;10.70;99.90
21092;DHT22;10704;42.678;23.288;2024-03-02T15:14:29;10.40;99.90
21092;DHT22;10704;42.678;23.288;2024-03-02T15:16:55;10.50;99.90
21092;DHT22;10704;42.678;23.288;2024-03-02T15:19:22;10.60;99.90
21092;DHT22;10704;42.678;23.288;2024-03-02T15:21:47;10.60;99.90
21092;DHT22;10704;42.678;23.288;2024-03-02T15:24:13;10.50;99.90
21092;DHT22;10704;42.678;23.288;2024-03-02T15:26:39;10.40;99.90
21092;DHT22;10704;42.678;23.288;2024-03-02T15:29:05;10.40;99.90
21092;DHT22;10704;42.678;23.288;2024-03-02T15:31:31;10.40;99.90
21092;DHT22;10704;42.678;23.288;2024-03-02T15:33:58;10.30;99.90
21092;DHT22;10704;42.678;23.288;2024-03-02T15:36:25;10.40;99.90
21092;DHT22;10704;42.678;23.288;2024-03-02T15:38:51;10.30;99.90
21092;DHT22;10704;42.678;23.288;2024-03-02T15:41:17;10.30;99.90
21092;DHT22;10704;42.678;23.288;2024-03-02T15:43:43;10.30;99.90
21092;DHT22;10704;42.678;23.288;2024-03-02T15:46:09;10.30;99.90
21092;DHT22;10704;42.678;23.288;2024-03-02T15:48:35;10.30;99.90
21092;DHT22;10704;42.678;23.288;2024-03-02T15:51:02;10.20;99.90
21092;DHT22;10704;42.678;23.288;2024-03-02T15:53:30;10.00;99.90
21092;DHT22;10704;42.678;23.288;2024-03-02T15:55:56;10.00;99.90
21092;DHT22;10704;42.678;23.288;2024-03-02T15:58:22;10.10;99.90
21092;DHT22;10704;42.678;23.288;2024-03-02T16:00:48;10.10;99.90
21092;DHT22;10704;42.678;23.288;2024-03-02T16:03:14;10.10;99.90
21092;DHT22;10704;42.678;23.288;2024-03-02T16:05:40;10.10;99.90
21092;DHT22;10704;42.678;23.288;2024-03-02T16:08:06;10.10;99.90
21092;DHT22;10704;42.678;23.288;2024-03-02T16:10:32;10.10;99.90
21092;DHT22;10704;42.678;23.288;2024-03-02T16:12:58;10.10;99.90
21092;DHT22;10704;42.678;23.288;2024-03-02T16:15:28;10.00;99.90
21092;DHT22;10704;42.678;23.288;2024-03-02T16:17:54;9.90;99.90
21092;DHT22;10704;42.678;23.288;2024-03-02T16:20:20;10.00;99.90
21092;DHT22;10704;42.678;23.288;2024-03-02T16:22:46;10.00;99.90
21092;DHT22;10704;42.678;23.288;2024-03-02T16:25:12;10.00;99.90
21092;DHT22;10704;42.678;23.288;2024-03-02T16:27:38;10.00;99.90
21092;DHT22;10704;42.678;23.288;2024-03-02T16:30:05;10.00;99.90
21092;DHT22;10704;42.678;23.288;2024-03-02T16:32:31;10.00;99.90
21092;DHT22;10704;42.678;23.288;2024-03-02T16:34:57;10.00;99.90
21092;DHT22;10704;42.678;23.288;2024-03-02T16:37:23;10.00;99.90
21092;DHT22;10704;42.678;23.288;2024-03-02T16:39:52;10.00;99.90
21092;DHT22;10704;42.678;23.288;2024-03-02T16:42:18;9.90;99.90
21092;DHT22;10704;42.678;23.288;2024-03-02T16:44:46;9.90;99.90
21092;DHT22;10704;42.678;23.288;2024-03-02T16:47:17;9.90;99.90
21092;DHT22;10704;42.678;23.288;2024-03-02T16:49:46;9.80;99.90
21092;DHT22;10704;42.678;23.288;2024-03-02T16:52:12;9.80;99.90
21092;DHT22;10704;42.678;23.288;2024-03-02T16:54:40;9.80;99.90
21092;DHT22;10704;42.678;23.288;2024-03-02T16:57:06;9.80;99.90
21092;DHT22;10704;42.678;23.288;2024-03-02T16:59:32;9.80;99.90
21092;DHT22;10704;42.678;23.288;2024-03-02T17:01:57;9.80;99.90
21092;DHT22;10704;42.678;23.288;2024-03-02T17:04:24;9.70;99.90
21092;DHT22;10704;42.678;23.288;2024-03-02T17:06:51;9.70;99.90
21092;DHT22;10704;42.678;23.288;2024-03-02T17:09:17;9.70;99.90
21092;DHT22;10704;42.678;23.288;2024-03-02T17:11:43;9.60;99.90
21092;DHT22;10704;42.678;23.288;2024-03-02T17:14:08;9.60;99.90
21092;DHT22;10704;42.678;23.288;2024-03-02T17:16:34;9.50;99.90
21092;DHT22;10704;42.678;23.288;2024-03-02T17:19:00;9.50;99.90
21092;DHT22;10704;42.678;23.288;2024-03-02T17:21:27;9.50;99.90